Time,TemperatureF,DewpointF,PressureIn,WindDirection,WindDirectionDegrees,WindSpeedMPH,WindSpeedGustMPH,Humidity,HourlyPrecipIn,Conditions,Clouds,dailyrainin,SolarRadiationWatts/m^2,SoftwareType,DateUTC
2013-09-09 00:01:00,62.0,52.0,-100.00,NE,34,3.0,8.0,69,0.00,,,0.00,0.000000,,2013-09-09 07:01:00,
2013-09-09 00:43:00,62.0,47.0,-100.00,NNE,31,2.0,14.0,58,0.00,,,0.00,0.000000,,2013-09-09 07:43:00,
2013-09-09 00:52:00,62.0,47.0,-100.00,NNE,31,2.0,14.0,58,0.00,,,0.00,0.000000,,2013-09-09 07:52:00,
2013-09-09 01:02:00,62.0,47.0,-100.00,NNE,31,2.0,14.0,58,0.00,,,0.00,0.000000,,2013-09-09 08:02:00,
2013-09-09 01:43:00,60.0,44.0,-100.00,NE,51,0.0,12.0,56,0.00,,,0.00,0.000000,,2013-09-09 08:43:00,
2013-09-09 01:52:00,60.0,44.0,-100.00,NE,51,0.0,12.0,56,0.00,,,0.00,0.000000,,2013-09-09 08:52:00,
2013-09-09 02:01:00,60.0,44.0,-100.00,NE,51,0.0,12.0,56,0.00,,,0.00,0.000000,,2013-09-09 09:01:00,
2013-09-09 02:43:00,61.0,43.0,-100.00,NE,54,1.0,9.0,51,0.00,,,0.00,0.000000,,2013-09-09 09:43:00,
2013-09-09 02:53:00,61.0,43.0,-100.00,NE,54,1.0,9.0,51,0.00,,,0.00,0.000000,,2013-09-09 09:53:00,
2013-09-09 03:03:00,61.0,43.0,-100.00,NE,54,1.0,9.0,51,0.00,,,0.00,0.000000,,2013-09-09 10:03:00,
2013-09-09 03:42:00,58.0,41.0,-100.00,East,82,0.0,8.0,53,0.00,,,0.00,0.000000,,2013-09-09 10:42:00,
2013-09-09 03:52:00,58.0,41.0,-100.00,East,82,0.0,8.0,53,0.00,,,0.00,0.000000,,2013-09-09 10:52:00,
2013-09-09 04:02:00,58.0,41.0,-100.00,East,82,0.0,8.0,53,0.00,,,0.00,0.000000,,2013-09-09 11:02:00,
2013-09-09 04:42:00,60.0,42.0,-100.00,West,277,0.0,5.0,52,0.00,,,0.00,0.000000,,2013-09-09 11:42:00,
2013-09-09 04:52:00,60.0,42.0,-100.00,West,277,0.0,5.0,52,0.00,,,0.00,0.000000,,2013-09-09 11:52:00,
2013-09-09 05:01:00,60.0,42.0,-100.00,West,277,0.0,5.0,52,0.00,,,0.00,0.000000,,2013-09-09 12:01:00,
2013-09-09 05:42:00,58.0,40.0,-100.00,East,98,0.0,7.0,51,0.00,,,0.00,0.000000,,2013-09-09 12:42:00,
2013-09-09 05:52:00,58.0,40.0,-100.00,East,98,0.0,7.0,51,0.00,,,0.00,0.000000,,2013-09-09 12:52:00,
2013-09-09 06:01:00,58.0,40.0,-100.00,East,98,0.0,7.0,51,0.00,,,0.00,0.000000,,2013-09-09 13:01:00,
2013-09-09 06:42:00,56.0,40.0,-100.00,NNW,348,0.0,3.0,54,0.00,,,0.00,0.000000,,2013-09-09 13:42:00,
2013-09-09 06:52:00,56.0,40.0,-100.00,NNW,348,0.0,3.0,54,0.00,,,0.00,0.000000,,2013-09-09 13:52:00,
2013-09-09 07:02:00,56.0,40.0,-100.00,NNW,348,0.0,3.0,54,0.00,,,0.00,0.000000,,2013-09-09 14:02:00,
2013-09-09 07:42:00,60.0,41.0,-100.00,ENE,63,0.0,8.0,49,0.00,,,0.00,17.000000,,2013-09-09 14:42:00,
2013-09-09 07:52:00,60.0,41.0,-100.00,ENE,63,0.0,8.0,49,0.00,,,0.00,17.000000,,2013-09-09 14:52:00,
2013-09-09 08:02:00,60.0,41.0,-100.00,ENE,63,0.0,8.0,49,0.00,,,0.00,17.000000,,2013-09-09 15:02:00,
2013-09-09 11:42:00,80.0,46.0,-100.00,WSW,247,1.0,5.0,30,-99.99,,,0.00,835.000000,,2013-09-09 18:42:00,
2013-09-09 12:43:00,82.0,46.0,-100.00,NW,311,1.0,6.0,28,-99.99,,,0.00,933.000000,,2013-09-09 19:43:00,
2013-09-09 12:52:00,82.0,46.0,-100.00,NW,311,1.0,6.0,28,-99.99,,,0.00,933.000000,,2013-09-09 19:52:00,
2013-09-09 13:02:00,82.0,46.0,-100.00,NW,311,1.0,6.0,28,-99.99,,,0.00,933.000000,,2013-09-09 20:02:00,
2013-09-09 14:44:00,84.0,47.0,-100.00,WSW,253,2.0,8.0,28,0.00,,,0.00,926.000000,,2013-09-09 21:44:00,
2013-09-09 14:54:00,84.0,47.0,-100.00,WSW,253,2.0,8.0,28,0.00,,,0.00,926.000000,,2013-09-09 21:54:00,
2013-09-09 15:05:00,84.0,47.0,-100.00,WSW,253,2.0,8.0,28,0.00,,,0.00,926.000000,,2013-09-09 22:05:00,
2013-09-09 16:42:00,86.0,47.0,-100.00,NE,47,4.0,12.0,26,-99.99,,,0.00,684.000000,,2013-09-09 23:42:00,
2013-09-09 16:52:00,86.0,47.0,-100.00,NE,47,4.0,12.0,26,-99.99,,,0.00,684.000000,,2013-09-09 23:52:00,
2013-09-09 17:02:00,86.0,47.0,-100.00,NE,47,4.0,12.0,26,-99.99,,,0.00,684.000000,,2013-09-10 00:02:00,
2013-09-09 17:42:00,84.0,49.0,-100.00,NE,45,4.0,11.0,30,0.00,,,0.00,486.000000,,2013-09-10 00:42:00,
2013-09-09 17:52:00,84.0,49.0,-100.00,NE,45,4.0,11.0,30,0.00,,,0.00,486.000000,,2013-09-10 00:52:00,
2013-09-09 18:01:00,84.0,49.0,-100.00,NE,45,4.0,11.0,30,0.00,,,0.00,486.000000,,2013-09-10 01:01:00,
2013-09-09 18:42:00,80.0,49.0,-100.00,NE,50,2.0,10.0,34,0.00,,,0.00,229.000000,,2013-09-10 01:42:00,
2013-09-09 18:52:00,80.0,49.0,-100.00,NE,50,2.0,10.0,34,0.00,,,0.00,229.000000,,2013-09-10 01:52:00,
2013-09-09 19:02:00,80.0,49.0,-100.00,NE,50,2.0,10.0,34,0.00,,,0.00,229.000000,,2013-09-10 02:02:00,
2013-09-09 19:42:00,73.0,53.0,-100.00,NNE,32,0.0,8.0,49,0.00,,,0.00,12.000000,,2013-09-10 02:42:00,
2013-09-09 19:52:00,73.0,53.0,-100.00,NNE,32,0.0,8.0,49,0.00,,,0.00,12.000000,,2013-09-10 02:52:00,
2013-09-09 20:02:00,73.0,53.0,-100.00,NNE,32,0.0,8.0,49,0.00,,,0.00,12.000000,,2013-09-10 03:02:00,
2013-09-09 20:44:00,65.0,51.0,-100.00,SSE,164,0.0,6.0,61,0.00,,,0.00,0.000000,,2013-09-10 03:44:00,
2013-09-09 20:54:00,65.0,51.0,-100.00,SSE,164,0.0,6.0,61,0.00,,,0.00,0.000000,,2013-09-10 03:54:00,
2013-09-09 21:04:00,65.0,51.0,-100.00,SSE,164,0.0,6.0,61,0.00,,,0.00,0.000000,,2013-09-10 04:04:00,
2013-09-09 21:43:00,67.0,51.0,-100.00,NE,50,2.0,6.0,56,0.00,,,0.00,0.000000,,2013-09-10 04:43:00,
2013-09-09 21:53:00,67.0,51.0,-100.00,NE,50,2.0,6.0,56,0.00,,,0.00,0.000000,,2013-09-10 04:53:00,
2013-09-09 22:03:00,67.0,51.0,-100.00,NE,50,2.0,6.0,56,0.00,,,0.00,0.000000,,2013-09-10 05:03:00,
2013-09-09 22:43:00,64.0,49.0,-100.00,ENE,59,1.0,9.0,58,0.00,,,0.00,0.000000,,2013-09-10 05:43:00,
2013-09-09 22:53:00,64.0,49.0,-100.00,ENE,59,1.0,9.0,58,0.00,,,0.00,0.000000,,2013-09-10 05:53:00,
2013-09-09 23:03:00,64.0,49.0,-100.00,ENE,59,1.0,9.0,58,0.00,,,0.00,0.000000,,2013-09-10 06:03:00,
2013-09-09 23:43:00,64.0,49.0,-100.00,ENE,62,0.0,6.0,58,0.00,,,0.00,0.000000,,2013-09-10 06:43:00,
2013-09-09 23:52:00,64.0,49.0,-100.00,ENE,62,0.0,6.0,58,0.00,,,0.00,0.000000,,2013-09-10 06:52:00,